Time,TemperatureF,DewpointF,PressureIn,WindDirection,WindDirectionDegrees,WindSpeedMPH,WindSpeedGustMPH,Humidity,HourlyPrecipIn,Conditions,Clouds,dailyrainin,SoftwareType,DateUTC
2013-10-08 00:01:00,41.7,41.2,29.68,NNE,22,0.0,0.0,98,0.00,,,0.00,Weather View 32 v70,2013-10-08 08:01:00,
2013-10-08 00:06:00,41.7,41.5,29.68,NNE,22,0.0,0.0,99,0.00,,,0.00,Weather View 32 v70,2013-10-08 08:06:00,
2013-10-08 00:11:00,41.5,41.0,29.68,NNE,22,0.0,0.0,98,0.00,,,0.00,Weather View 32 v70,2013-10-08 08:11:00,
2013-10-08 00:16:00,41.5,41.0,29.66,NNE,22,0.0,0.0,98,0.00,,,0.00,Weather View 32 v70,2013-10-08 08:16:00,
2013-10-08 00:21:00,41.4,40.8,29.66,NNE,22,0.0,0.0,98,0.00,,,0.00,Weather View 32 v70,2013-10-08 08:21:00,
2013-10-08 00:26:00,40.8,40.6,29.66,NNE,22,0.0,0.0,99,0.00,,,0.00,Weather View 32 v70,2013-10-08 08:26:00,
2013-10-08 00:31:00,40.6,40.4,29.66,NNE,22,0.0,0.0,99,0.00,,,0.00,Weather View 32 v70,2013-10-08 08:31:00,
2013-10-08 00:36:00,40.5,40.2,29.67,NNE,22,0.0,0.0,99,0.00,,,0.00,Weather View 32 v70,2013-10-08 08:36:00,
2013-10-08 00:41:00,40.5,40.2,29.67,NNE,22,0.0,0.0,99,0.00,,,0.00,Weather View 32 v70,2013-10-08 08:41:00,
2013-10-08 00:46:00,40.3,40.0,29.67,NNE,22,0.0,0.0,99,0.00,,,0.00,Weather View 32 v70,2013-10-08 08:46:00,
2013-10-08 00:51:00,40.1,39.8,29.67,NNE,22,0.0,0.0,99,0.00,,,0.00,Weather View 32 v70,2013-10-08 08:51:00,
2013-10-08 00:56:00,40.1,39.8,29.64,NNE,22,0.0,0.0,99,0.00,,,0.00,Weather View 32 v70,2013-10-08 08:56:00,
2013-10-08 01:01:00,39.9,39.7,29.64,NNE,22,0.0,0.0,99,0.00,,,0.00,Weather View 32 v70,2013-10-08 09:01:00,
2013-10-08 01:06:00,39.9,39.7,29.64,NNE,22,0.0,0.0,99,0.03,,,0.03,Weather View 32 v70,2013-10-08 09:06:00,
2013-10-08 01:11:00,39.7,39.5,29.64,NNE,22,0.0,0.0,99,0.03,,,0.03,Weather View 32 v70,2013-10-08 09:11:00,
2013-10-08 01:16:00,39.7,39.5,29.63,NNE,22,0.0,0.0,99,0.03,,,0.03,Weather View 32 v70,2013-10-08 09:16:00,
2013-10-08 01:21:00,39.7,39.5,29.63,NNE,22,0.0,0.0,99,0.03,,,0.03,Weather View 32 v70,2013-10-08 09:21:00,
2013-10-08 01:26:00,39.6,39.3,29.63,NNE,22,0.0,0.0,99,0.03,,,0.03,Weather View 32 v70,2013-10-08 09:26:00,
2013-10-08 01:31:00,39.6,39.3,29.63,NNE,22,0.0,0.0,99,0.03,,,0.03,Weather View 32 v70,2013-10-08 09:31:00,
2013-10-08 01:36:00,39.6,39.3,29.61,NNE,22,0.0,0.0,99,0.03,,,0.03,Weather View 32 v70,2013-10-08 09:36:00,
2013-10-08 01:41:00,39.6,39.3,29.61,NNE,22,0.0,0.0,99,0.03,,,0.03,Weather View 32 v70,2013-10-08 09:41:00,
2013-10-08 01:46:00,39.6,39.3,29.61,NNE,22,0.0,0.0,99,0.03,,,0.03,Weather View 32 v70,2013-10-08 09:46:00,
2013-10-08 01:51:00,39.6,39.3,29.61,NNE,22,0.0,0.0,99,0.03,,,0.03,Weather View 32 v70,2013-10-08 09:51:00,
2013-10-08 01:56:00,39.6,39.3,29.60,NNE,22,0.0,0.0,99,0.03,,,0.03,Weather View 32 v70,2013-10-08 09:56:00,
2013-10-08 02:01:00,39.6,39.3,29.60,NNE,22,0.0,0.0,99,0.03,,,0.03,Weather View 32 v70,2013-10-08 10:01:00,
2013-10-08 02:06:00,39.6,39.3,29.60,NNE,22,0.0,0.0,99,0.06,,,0.06,Weather View 32 v70,2013-10-08 10:06:00,
2013-10-08 02:11:00,39.6,39.3,29.60,NNE,22,0.0,0.0,99,0.03,,,0.06,Weather View 32 v70,2013-10-08 10:11:00,
2013-10-08 02:16:00,39.6,39.3,29.58,NNE,22,0.0,0.0,99,0.03,,,0.06,Weather View 32 v70,2013-10-08 10:16:00,
2013-10-08 02:21:00,39.4,39.1,29.58,NNE,22,0.0,0.0,99,0.03,,,0.06,Weather View 32 v70,2013-10-08 10:21:00,
2013-10-08 02:26:00,39.4,39.1,29.58,NNE,22,0.0,0.0,99,0.03,,,0.06,Weather View 32 v70,2013-10-08 10:26:00,
2013-10-08 02:31:00,39.4,39.1,29.58,NNE,22,0.0,0.0,99,0.03,,,0.06,Weather View 32 v70,2013-10-08 10:31:00,
2013-10-08 02:36:00,39.4,39.1,29.58,NNE,22,0.0,0.0,99,0.03,,,0.06,Weather View 32 v70,2013-10-08 10:36:00,
2013-10-08 02:41:00,39.4,39.1,29.58,NNE,22,0.0,0.0,99,0.06,,,0.09,Weather View 32 v70,2013-10-08 10:41:00,
2013-10-08 02:46:00,39.4,39.1,29.58,NNE,22,0.0,0.0,99,0.06,,,0.09,Weather View 32 v70,2013-10-08 10:46:00,
2013-10-08 02:51:00,39.4,39.1,29.58,NNE,22,0.0,0.0,99,0.06,,,0.09,Weather View 32 v70,2013-10-08 10:51:00,
2013-10-08 02:56:00,39.6,39.3,29.56,NNE,22,0.0,0.0,99,0.06,,,0.09,Weather View 32 v70,2013-10-08 10:56:00,
2013-10-08 03:01:00,39.6,39.3,29.56,NNE,22,0.0,0.0,99,0.06,,,0.09,Weather View 32 v70,2013-10-08 11:01:00,
2013-10-08 03:06:00,39.4,39.1,29.56,NNE,22,0.0,0.0,99,0.06,,,0.12,Weather View 32 v70,2013-10-08 11:06:00,
2013-10-08 03:11:00,39.4,39.1,29.56,NNE,22,0.0,0.0,99,0.06,,,0.12,Weather View 32 v70,2013-10-08 11:11:00,
2013-10-08 03:16:00,39.4,39.1,29.56,NNE,22,0.0,0.0,99,0.06,,,0.12,Weather View 32 v70,2013-10-08 11:16:00,
2013-10-08 03:21:00,39.6,39.3,29.56,NNE,22,0.0,0.0,99,0.06,,,0.12,Weather View 32 v70,2013-10-08 11:21:00,
2013-10-08 03:26:00,39.6,39.3,29.56,NNE,22,0.0,0.0,99,0.06,,,0.12,Weather View 32 v70,2013-10-08 11:26:00,
2013-10-08 03:31:00,39.6,39.3,29.56,NNE,22,0.0,0.0,99,0.06,,,0.15,Weather View 32 v70,2013-10-08 11:31:00,
2013-10-08 03:36:00,39.6,39.3,29.54,NNE,22,0.0,0.0,99,0.09,,,0.15,Weather View 32 v70,2013-10-08 11:36:00,
2013-10-08 03:41:00,39.6,39.3,29.54,NNE,22,0.0,0.0,99,0.06,,,0.15,Weather View 32 v70,2013-10-08 11:41:00,
2013-10-08 03:46:00,39.6,39.3,29.54,NNE,22,0.0,0.0,99,0.06,,,0.15,Weather View 32 v70,2013-10-08 11:46:00,
2013-10-08 03:52:00,39.7,39.5,29.54,NNE,22,0.0,0.0,99,0.09,,,0.18,Weather View 32 v70,2013-10-08 11:52:00,
2013-10-08 03:57:00,39.7,39.5,29.52,NNE,22,0.0,0.0,99,0.12,,,0.21,Weather View 32 v70,2013-10-08 11:57:00,
2013-10-08 04:02:00,39.7,39.5,29.52,NNE,22,0.0,0.0,99,0.12,,,0.21,Weather View 32 v70,2013-10-08 12:02:00,
2013-10-08 04:07:00,39.7,39.5,29.52,NNE,22,0.0,0.0,99,0.09,,,0.21,Weather View 32 v70,2013-10-08 12:07:00,
2013-10-08 04:12:00,39.9,39.7,29.52,NNE,22,0.0,0.0,99,0.12,,,0.24,Weather View 32 v70,2013-10-08 12:12:00,
2013-10-08 04:17:00,39.9,39.7,29.49,NNE,22,0.0,0.0,99,0.12,,,0.24,Weather View 32 v70,2013-10-08 12:17:00,
2013-10-08 04:22:00,39.9,39.7,29.49,NNE,22,0.0,0.0,99,0.12,,,0.24,Weather View 32 v70,2013-10-08 12:22:00,
2013-10-08 04:27:00,39.9,39.7,29.49,NNE,22,0.0,0.0,99,0.12,,,0.24,Weather View 32 v70,2013-10-08 12:27:00,
2013-10-08 04:32:00,39.9,39.7,29.49,NNE,22,0.0,0.0,99,0.09,,,0.24,Weather View 32 v70,2013-10-08 12:32:00,
2013-10-08 04:37:00,39.9,39.7,29.48,NNE,22,0.0,0.0,99,0.09,,,0.24,Weather View 32 v70,2013-10-08 12:37:00,
2013-10-08 04:42:00,39.9,39.7,29.48,NNE,22,0.0,0.0,99,0.12,,,0.27,Weather View 32 v70,2013-10-08 12:42:00,
2013-10-08 04:47:00,40.1,39.8,29.48,NNE,22,0.0,0.0,99,0.12,,,0.27,Weather View 32 v70,2013-10-08 12:47:00,
2013-10-08 04:52:00,40.5,40.2,29.48,NNE,22,0.0,0.0,99,0.09,,,0.27,Weather View 32 v70,2013-10-08 12:52:00,
2013-10-08 04:57:00,40.5,40.2,29.47,NNE,22,0.0,0.0,99,0.06,,,0.27,Weather View 32 v70,2013-10-08 12:57:00,
2013-10-08 05:02:00,40.6,40.4,29.47,NNE,22,0.0,0.0,99,0.06,,,0.27,Weather View 32 v70,2013-10-08 13:02:00,
2013-10-08 05:07:00,40.6,40.4,29.47,NNE,22,0.0,0.0,99,0.06,,,0.27,Weather View 32 v70,2013-10-08 13:07:00,
2013-10-08 05:12:00,40.6,40.4,29.47,NNE,22,0.0,0.0,99,0.03,,,0.27,Weather View 32 v70,2013-10-08 13:12:00,
2013-10-08 05:17:00,40.6,40.4,29.46,NNE,22,0.0,0.0,99,0.06,,,0.30,Weather View 32 v70,2013-10-08 13:17:00,
2013-10-08 05:22:00,40.6,40.4,29.46,NNE,22,0.0,0.0,99,0.06,,,0.30,Weather View 32 v70,2013-10-08 13:22:00,
2013-10-08 05:27:00,40.6,40.4,29.46,NNE,22,0.0,0.0,99,0.06,,,0.30,Weather View 32 v70,2013-10-08 13:27:00,
2013-10-08 05:32:00,40.6,40.4,29.46,NNE,22,0.0,0.0,99,0.06,,,0.30,Weather View 32 v70,2013-10-08 13:32:00,
2013-10-08 05:37:00,40.6,40.4,29.43,NNE,22,0.0,0.0,99,0.06,,,0.30,Weather View 32 v70,2013-10-08 13:37:00,
2013-10-08 05:42:00,40.6,40.4,29.43,NNE,22,0.0,0.0,99,0.03,,,0.30,Weather View 32 v70,2013-10-08 13:42:00,
2013-10-08 05:47:00,40.6,40.4,29.43,NNE,22,0.0,0.0,99,0.03,,,0.30,Weather View 32 v70,2013-10-08 13:47:00,
2013-10-08 05:52:00,40.6,40.4,29.43,NNE,22,0.0,0.0,99,0.03,,,0.30,Weather View 32 v70,2013-10-08 13:52:00,
2013-10-08 05:57:00,40.6,40.4,29.40,NNE,22,0.0,0.0,99,0.03,,,0.30,Weather View 32 v70,2013-10-08 13:57:00,
2013-10-08 06:02:00,40.6,40.4,29.40,NNE,22,0.0,0.0,99,0.06,,,0.33,Weather View 32 v70,2013-10-08 14:02:00,
2013-10-08 06:07:00,40.6,40.4,29.40,NNE,22,0.0,0.0,99,0.06,,,0.33,Weather View 32 v70,2013-10-08 14:07:00,
2013-10-08 06:12:00,40.8,40.6,29.40,NNE,22,0.0,0.0,99,0.06,,,0.33,Weather View 32 v70,2013-10-08 14:12:00,
2013-10-08 06:17:00,40.6,40.4,29.39,NNE,22,0.0,0.0,99,0.03,,,0.33,Weather View 32 v70,2013-10-08 14:17:00,
2013-10-08 06:22:00,40.8,40.6,29.39,NNE,22,0.0,0.0,99,0.03,,,0.33,Weather View 32 v70,2013-10-08 14:22:00,
2013-10-08 06:27:00,40.8,40.6,29.39,NNE,22,0.0,0.0,99,0.03,,,0.33,Weather View 32 v70,2013-10-08 14:27:00,
2013-10-08 06:32:00,40.8,40.6,29.39,NNE,22,0.0,0.0,99,0.03,,,0.33,Weather View 32 v70,2013-10-08 14:32:00,
2013-10-08 06:37:00,41.0,40.7,29.37,NNE,22,0.0,0.0,99,0.03,,,0.33,Weather View 32 v70,2013-10-08 14:37:00,
2013-10-08 06:42:00,41.4,41.1,29.37,NNE,22,0.0,0.0,99,0.03,,,0.33,Weather View 32 v70,2013-10-08 14:42:00,
2013-10-08 06:47:00,41.5,41.3,29.37,NNE,22,0.0,0.0,99,0.03,,,0.33,Weather View 32 v70,2013-10-08 14:47:00,
2013-10-08 06:52:00,41.7,41.5,29.37,NNE,22,0.0,0.0,99,0.03,,,0.33,Weather View 32 v70,2013-10-08 14:52:00,
2013-10-08 06:57:00,41.7,41.5,29.35,NNE,22,0.0,0.0,99,0.03,,,0.33,Weather View 32 v70,2013-10-08 14:57:00,
2013-10-08 07:02:00,41.7,41.5,29.35,NNE,22,0.0,0.0,99,0.00,,,0.33,Weather View 32 v70,2013-10-08 15:02:00,
2013-10-08 07:07:00,41.7,41.5,29.35,NNE,22,0.0,0.0,99,0.00,,,0.33,Weather View 32 v70,2013-10-08 15:07:00,
2013-10-08 07:12:00,41.5,41.3,29.35,NNE,22,0.0,0.0,99,0.00,,,0.33,Weather View 32 v70,2013-10-08 15:12:00,
2013-10-08 07:17:00,41.7,41.5,29.33,NNE,22,0.0,0.0,99,0.00,,,0.33,Weather View 32 v70,2013-10-08 15:17:00,
2013-10-08 07:22:00,41.9,41.6,29.33,NNE,22,0.0,0.0,99,0.00,,,0.33,Weather View 32 v70,2013-10-08 15:22:00,
2013-10-08 07:27:00,42.1,41.8,29.33,NNE,22,0.0,0.0,99,0.00,,,0.33,Weather View 32 v70,2013-10-08 15:27:00,
2013-10-08 07:32:00,42.3,42.0,29.33,NNE,22,0.0,0.0,99,0.00,,,0.33,Weather View 32 v70,2013-10-08 15:32:00,
2013-10-08 07:37:00,42.1,41.8,29.31,NNE,22,0.0,0.0,99,0.00,,,0.33,Weather View 32 v70,2013-10-08 15:37:00,
2013-10-08 07:42:00,42.1,41.8,29.31,NNE,22,0.0,0.0,99,0.00,,,0.33,Weather View 32 v70,2013-10-08 15:42:00,
2013-10-08 07:47:00,42.1,41.8,29.31,NNE,22,0.0,0.0,99,0.00,,,0.33,Weather View 32 v70,2013-10-08 15:47:00,
2013-10-08 07:52:00,42.1,41.8,29.31,NNE,22,0.0,0.0,99,0.00,,,0.33,Weather View 32 v70,2013-10-08 15:52:00,
2013-10-08 07:57:00,41.9,41.6,29.29,NNE,22,0.0,0.0,99,0.03,,,0.36,Weather View 32 v70,2013-10-08 15:57:00,
2013-10-08 08:02:00,41.7,41.5,29.29,NNE,22,0.0,0.0,99,0.03,,,0.36,Weather View 32 v70,2013-10-08 16:02:00,
2013-10-08 08:07:00,41.5,41.3,29.29,NNE,22,0.0,0.0,99,0.03,,,0.36,Weather View 32 v70,2013-10-08 16:07:00,
2013-10-08 08:12:00,41.5,41.3,29.29,NNE,22,0.0,0.0,99,0.03,,,0.36,Weather View 32 v70,2013-10-08 16:12:00,
2013-10-08 08:17:00,41.5,41.3,29.27,NNE,22,0.0,0.0,99,0.03,,,0.36,Weather View 32 v70,2013-10-08 16:17:00,
2013-10-08 08:22:00,41.4,41.1,29.27,NNE,22,0.0,0.0,99,0.03,,,0.36,Weather View 32 v70,2013-10-08 16:22:00,
2013-10-08 08:27:00,41.2,40.9,29.27,NNE,22,0.0,0.0,99,0.03,,,0.36,Weather View 32 v70,2013-10-08 16:27:00,
2013-10-08 08:32:00,41.4,41.1,29.27,NNE,22,0.0,0.0,99,0.03,,,0.36,Weather View 32 v70,2013-10-08 16:32:00,
2013-10-08 08:37:00,41.2,40.9,29.26,NNE,22,0.0,0.0,99,0.03,,,0.36,Weather View 32 v70,2013-10-08 16:37:00,
2013-10-08 08:42:00,41.4,41.1,29.26,NNE,22,0.0,0.0,99,0.03,,,0.36,Weather View 32 v70,2013-10-08 16:42:00,
2013-10-08 08:47:00,41.7,41.5,29.26,NNE,22,0.0,0.0,99,0.03,,,0.36,Weather View 32 v70,2013-10-08 16:47:00,
2013-10-08 08:52:00,42.1,41.8,29.26,NNE,22,0.0,0.0,99,0.03,,,0.36,Weather View 32 v70,2013-10-08 16:52:00,
2013-10-08 08:57:00,42.1,41.8,29.24,NNE,22,0.0,0.0,99,0.00,,,0.36,Weather View 32 v70,2013-10-08 16:57:00,
2013-10-08 09:02:00,42.3,42.0,29.24,NNE,22,0.0,0.0,99,0.00,,,0.36,Weather View 32 v70,2013-10-08 17:02:00,
2013-10-08 09:07:00,42.3,42.0,29.24,NNE,22,0.0,0.0,99,0.03,,,0.39,Weather View 32 v70,2013-10-08 17:07:00,
2013-10-08 09:12:00,42.3,42.0,29.24,NNE,22,0.0,0.0,99,0.03,,,0.39,Weather View 32 v70,2013-10-08 17:12:00,
2013-10-08 09:17:00,42.3,42.0,29.25,NNE,22,0.0,0.0,99,0.03,,,0.39,Weather View 32 v70,2013-10-08 17:17:00,
2013-10-08 09:22:00,42.1,41.8,29.25,NNE,22,0.0,0.0,99,0.03,,,0.39,Weather View 32 v70,2013-10-08 17:22:00,
2013-10-08 09:27:00,41.9,41.6,29.25,NNE,22,0.0,0.0,99,0.06,,,0.42,Weather View 32 v70,2013-10-08 17:27:00,
2013-10-08 09:32:00,41.4,41.1,29.25,NNE,22,0.0,0.0,99,0.06,,,0.42,Weather View 32 v70,2013-10-08 17:32:00,
2013-10-08 09:37:00,41.4,41.1,29.23,NNE,22,0.0,0.0,99,0.09,,,0.45,Weather View 32 v70,2013-10-08 17:37:00,
2013-10-08 09:42:00,41.5,41.3,29.23,NNE,22,0.0,0.0,99,0.09,,,0.45,Weather View 32 v70,2013-10-08 17:42:00,
2013-10-08 09:47:00,41.7,41.5,29.23,NNE,22,0.0,0.0,99,0.09,,,0.45,Weather View 32 v70,2013-10-08 17:47:00,
2013-10-08 09:52:00,41.7,41.5,29.23,NNE,22,0.0,0.0,99,0.12,,,0.48,Weather View 32 v70,2013-10-08 17:52:00,
2013-10-08 09:57:00,41.7,41.5,29.24,NNE,22,0.0,0.0,99,0.15,,,0.51,Weather View 32 v70,2013-10-08 17:57:00,
2013-10-08 10:02:00,41.5,41.3,29.24,NNE,22,0.0,0.0,99,0.18,,,0.54,Weather View 32 v70,2013-10-08 18:02:00,
2013-10-08 10:07:00,41.7,41.5,29.24,NNE,22,0.0,0.0,99,0.15,,,0.54,Weather View 32 v70,2013-10-08 18:07:00,
2013-10-08 10:12:00,41.7,41.5,29.24,NNE,22,0.0,0.0,99,0.15,,,0.54,Weather View 32 v70,2013-10-08 18:12:00,
2013-10-08 10:17:00,41.7,41.5,29.23,NNE,22,0.0,0.0,99,0.18,,,0.57,Weather View 32 v70,2013-10-08 18:17:00,
2013-10-08 10:22:00,41.7,41.5,29.23,NNE,22,0.0,0.0,99,0.18,,,0.57,Weather View 32 v70,2013-10-08 18:22:00,
2013-10-08 10:27:00,41.7,41.5,29.23,NNE,22,0.0,0.0,99,0.18,,,0.60,Weather View 32 v70,2013-10-08 18:27:00,
2013-10-08 10:32:00,41.7,41.5,29.23,NNE,22,0.0,0.0,99,0.18,,,0.60,Weather View 32 v70,2013-10-08 18:32:00,
2013-10-08 10:37:00,41.7,41.5,29.23,NNE,22,0.0,0.0,99,0.15,,,0.60,Weather View 32 v70,2013-10-08 18:37:00,
2013-10-08 10:42:00,41.7,41.5,29.23,NNE,22,0.0,0.0,99,0.18,,,0.63,Weather View 32 v70,2013-10-08 18:42:00,
2013-10-08 10:47:00,41.7,41.5,29.23,NNE,22,0.0,0.0,99,0.18,,,0.63,Weather View 32 v70,2013-10-08 18:47:00,
2013-10-08 10:52:00,41.7,41.5,29.23,NNE,22,0.0,0.0,99,0.18,,,0.66,Weather View 32 v70,2013-10-08 18:52:00,
2013-10-08 10:57:00,41.9,41.6,29.21,NNE,22,0.0,0.0,99,0.15,,,0.66,Weather View 32 v70,2013-10-08 18:57:00,
2013-10-08 11:02:00,41.9,41.6,29.21,NNE,22,0.0,0.0,99,0.15,,,0.69,Weather View 32 v70,2013-10-08 19:02:00,
2013-10-08 11:07:00,41.9,41.6,29.21,NNE,22,0.0,0.0,99,0.15,,,0.69,Weather View 32 v70,2013-10-08 19:07:00,
2013-10-08 11:12:00,41.9,41.6,29.21,NNE,22,0.0,0.0,99,0.18,,,0.72,Weather View 32 v70,2013-10-08 19:12:00,
2013-10-08 11:17:00,41.9,41.6,29.21,NNE,22,0.0,0.0,99,0.15,,,0.72,Weather View 32 v70,2013-10-08 19:17:00,
2013-10-08 11:22:00,41.9,41.6,29.21,NNE,22,0.0,0.0,99,0.15,,,0.72,Weather View 32 v70,2013-10-08 19:22:00,
2013-10-08 11:27:00,41.9,41.6,29.21,NNE,22,0.0,0.0,99,0.15,,,0.75,Weather View 32 v70,2013-10-08 19:27:00,
2013-10-08 11:32:00,41.7,41.5,29.21,NNE,22,0.0,0.0,99,0.15,,,0.75,Weather View 32 v70,2013-10-08 19:32:00,
2013-10-08 11:37:00,41.7,41.5,29.20,NNE,22,0.0,0.0,99,0.15,,,0.75,Weather View 32 v70,2013-10-08 19:37:00,
2013-10-08 11:42:00,41.7,41.5,29.20,NNE,22,0.0,0.0,99,0.12,,,0.75,Weather View 32 v70,2013-10-08 19:42:00,
2013-10-08 11:47:00,41.5,41.3,29.20,NNE,22,0.0,0.0,99,0.12,,,0.75,Weather View 32 v70,2013-10-08 19:47:00,
2013-10-08 11:52:00,41.2,40.9,29.20,NNE,22,0.0,0.0,99,0.09,,,0.75,Weather View 32 v70,2013-10-08 19:52:00,
2013-10-08 11:57:00,41.2,40.9,29.19,NNE,22,0.0,0.0,99,0.12,,,0.78,Weather View 32 v70,2013-10-08 19:57:00,
2013-10-08 12:02:00,41.0,40.7,29.19,NNE,22,0.0,0.0,99,0.09,,,0.78,Weather View 32 v70,2013-10-08 20:02:00,
2013-10-08 12:07:00,41.0,40.7,29.19,NNE,22,0.0,0.0,99,0.09,,,0.78,Weather View 32 v70,2013-10-08 20:07:00,
2013-10-08 12:12:00,41.2,40.9,29.19,NNE,22,0.0,0.0,99,0.09,,,0.81,Weather View 32 v70,2013-10-08 20:12:00,
2013-10-08 12:17:00,41.2,40.9,29.18,NNE,22,0.0,0.0,99,0.09,,,0.81,Weather View 32 v70,2013-10-08 20:17:00,
2013-10-08 12:22:00,41.2,40.9,29.18,NNE,22,0.0,0.0,99,0.12,,,0.84,Weather View 32 v70,2013-10-08 20:22:00,
2013-10-08 12:27:00,41.2,40.9,29.18,NNE,22,0.0,0.0,99,0.09,,,0.84,Weather View 32 v70,2013-10-08 20:27:00,
2013-10-08 12:32:00,41.2,40.9,29.18,NNE,22,0.0,0.0,99,0.12,,,0.87,Weather View 32 v70,2013-10-08 20:32:00,
2013-10-08 12:37:00,41.2,40.9,29.17,NNE,22,0.0,0.0,99,0.12,,,0.87,Weather View 32 v70,2013-10-08 20:37:00,
2013-10-08 12:42:00,41.2,40.9,29.17,NNE,22,0.0,0.0,99,0.12,,,0.87,Weather View 32 v70,2013-10-08 20:42:00,
2013-10-08 12:47:00,41.2,40.9,29.17,NNE,22,0.0,0.0,99,0.12,,,0.87,Weather View 32 v70,2013-10-08 20:47:00,
2013-10-08 12:52:00,41.2,40.9,29.17,NNE,22,0.0,0.0,99,0.15,,,0.90,Weather View 32 v70,2013-10-08 20:52:00,
2013-10-08 12:57:00,41.4,41.1,29.15,NNE,22,0.0,0.0,99,0.12,,,0.90,Weather View 32 v70,2013-10-08 20:57:00,
2013-10-08 13:02:00,41.4,41.1,29.15,NNE,22,0.0,0.0,99,0.12,,,0.90,Weather View 32 v70,2013-10-08 21:02:00,
2013-10-08 13:07:00,41.4,41.1,29.15,NNE,22,0.0,0.0,99,0.12,,,0.90,Weather View 32 v70,2013-10-08 21:07:00,
2013-10-08 13:12:00,41.5,41.3,29.15,NNE,22,0.0,0.0,99,0.09,,,0.90,Weather View 32 v70,2013-10-08 21:12:00,
2013-10-08 13:17:00,41.5,41.3,29.14,NNE,22,0.0,0.0,99,0.09,,,0.90,Weather View 32 v70,2013-10-08 21:17:00,
2013-10-08 13:22:00,41.9,41.6,29.14,NNE,22,0.0,0.0,99,0.09,,,0.93,Weather View 32 v70,2013-10-08 21:22:00,
2013-10-08 13:27:00,42.3,42.0,29.14,NNE,22,0.0,0.0,99,0.09,,,0.93,Weather View 32 v70,2013-10-08 21:27:00,
2013-10-08 13:32:00,42.3,42.0,29.14,NNE,22,0.0,0.0,99,0.06,,,0.93,Weather View 32 v70,2013-10-08 21:32:00,
2013-10-08 13:37:00,42.3,42.0,29.13,NNE,22,0.0,0.0,99,0.09,,,0.96,Weather View 32 v70,2013-10-08 21:37:00,
2013-10-08 13:42:00,42.4,42.2,29.13,NNE,22,0.0,0.0,99,0.09,,,0.96,Weather View 32 v70,2013-10-08 21:42:00,
2013-10-08 13:47:00,42.4,42.2,29.13,NNE,22,0.0,0.0,99,0.09,,,0.96,Weather View 32 v70,2013-10-08 21:47:00,
2013-10-08 13:52:00,42.4,42.2,29.13,NNE,22,0.0,0.0,99,0.06,,,0.96,Weather View 32 v70,2013-10-08 21:52:00,
2013-10-08 13:57:00,42.4,42.2,29.11,NNE,22,0.0,0.0,99,0.09,,,0.99,Weather View 32 v70,2013-10-08 21:57:00,
2013-10-08 14:02:00,42.3,42.0,29.11,NNE,22,0.0,0.0,99,0.09,,,0.99,Weather View 32 v70,2013-10-08 22:02:00,
2013-10-08 14:07:00,42.4,42.2,29.11,NNE,22,0.0,0.0,99,0.09,,,0.99,Weather View 32 v70,2013-10-08 22:07:00,
2013-10-08 14:12:00,42.4,42.2,29.11,NNE,22,0.0,0.0,99,0.12,,,1.02,Weather View 32 v70,2013-10-08 22:12:00,
2013-10-08 14:17:00,42.4,42.2,29.09,NNE,22,0.0,0.0,99,0.12,,,1.02,Weather View 32 v70,2013-10-08 22:17:00,
2013-10-08 14:22:00,42.4,42.2,29.09,NNE,22,0.0,0.0,99,0.09,,,1.02,Weather View 32 v70,2013-10-08 22:22:00,
2013-10-08 14:27:00,42.4,42.2,29.09,NNE,22,0.0,0.0,99,0.09,,,1.02,Weather View 32 v70,2013-10-08 22:27:00,
2013-10-08 14:32:00,42.3,42.0,29.09,NNE,22,0.0,0.0,99,0.09,,,1.02,Weather View 32 v70,2013-10-08 22:32:00,
2013-10-08 14:37:00,42.1,41.8,29.07,NNE,22,0.0,0.0,99,0.09,,,1.05,Weather View 32 v70,2013-10-08 22:37:00,
2013-10-08 14:42:00,42.3,42.0,29.07,NNE,22,0.0,0.0,99,0.09,,,1.05,Weather View 32 v70,2013-10-08 22:42:00,
2013-10-08 14:47:00,42.4,42.2,29.07,NNE,22,0.0,0.0,99,0.12,,,1.08,Weather View 32 v70,2013-10-08 22:47:00,
2013-10-08 14:52:00,42.4,42.2,29.07,NNE,22,0.0,0.0,99,0.12,,,1.08,Weather View 32 v70,2013-10-08 22:52:00,
2013-10-08 14:57:00,41.9,41.6,29.06,NNE,22,0.0,0.0,99,0.09,,,1.08,Weather View 32 v70,2013-10-08 22:57:00,
2013-10-08 15:02:00,41.7,41.5,29.06,NNE,22,0.0,0.0,99,0.09,,,1.08,Weather View 32 v70,2013-10-08 23:02:00,
2013-10-08 15:07:00,41.9,41.6,29.06,NNE,22,0.0,0.0,99,0.09,,,1.08,Weather View 32 v70,2013-10-08 23:07:00,
2013-10-08 15:12:00,42.1,41.8,29.06,NNE,22,0.0,0.0,99,0.06,,,1.08,Weather View 32 v70,2013-10-08 23:12:00,
2013-10-08 15:17:00,42.1,41.8,29.04,NNE,22,0.0,0.0,99,0.06,,,1.08,Weather View 32 v70,2013-10-08 23:17:00,
2013-10-08 15:22:00,42.3,42.0,29.04,NNE,22,0.0,0.0,99,0.06,,,1.08,Weather View 32 v70,2013-10-08 23:22:00,
2013-10-08 15:27:00,42.4,42.2,29.04,NNE,22,0.0,0.0,99,0.09,,,1.11,Weather View 32 v70,2013-10-08 23:27:00,
2013-10-08 15:32:00,42.6,42.4,29.04,NNE,22,0.0,0.0,99,0.09,,,1.11,Weather View 32 v70,2013-10-08 23:32:00,
2013-10-08 15:37:00,42.4,42.2,29.02,NNE,22,0.0,0.0,99,0.06,,,1.11,Weather View 32 v70,2013-10-08 23:37:00,
2013-10-08 15:42:00,42.1,41.8,29.02,NNE,22,0.0,0.0,99,0.06,,,1.11,Weather View 32 v70,2013-10-08 23:42:00,
2013-10-08 15:47:00,42.1,41.8,29.02,NNE,22,0.0,0.0,99,0.03,,,1.11,Weather View 32 v70,2013-10-08 23:47:00,
2013-10-08 15:52:00,42.1,41.8,29.02,NNE,22,0.0,0.0,99,0.03,,,1.11,Weather View 32 v70,2013-10-08 23:52:00,
2013-10-08 15:57:00,42.1,41.8,29.01,NNE,22,0.0,0.0,99,0.03,,,1.11,Weather View 32 v70,2013-10-08 23:57:00,
2013-10-08 16:02:00,42.1,41.8,29.01,NNE,22,0.0,0.0,99,0.03,,,1.11,Weather View 32 v70,2013-10-09 00:02:00,
2013-10-08 16:07:00,42.3,42.0,29.01,NNE,22,0.0,0.0,99,0.03,,,1.11,Weather View 32 v70,2013-10-09 00:07:00,
2013-10-08 16:12:00,42.3,42.0,29.01,NNE,22,0.0,0.0,99,0.03,,,1.11,Weather View 32 v70,2013-10-09 00:12:00,
2013-10-08 16:17:00,42.3,42.0,29.01,NNE,22,0.0,0.0,99,0.03,,,1.11,Weather View 32 v70,2013-10-09 00:17:00,
2013-10-08 16:22:00,42.3,42.0,29.01,NNE,22,0.0,0.0,99,0.03,,,1.11,Weather View 32 v70,2013-10-09 00:22:00,
2013-10-08 16:27:00,42.3,42.0,29.01,NNE,22,0.0,0.0,99,0.00,,,1.11,Weather View 32 v70,2013-10-09 00:27:00,
2013-10-08 16:32:00,42.3,42.0,29.01,NNE,22,0.0,0.0,99,0.00,,,1.11,Weather View 32 v70,2013-10-09 00:32:00,
2013-10-08 16:37:00,42.3,42.0,29.00,NNE,22,0.0,0.0,99,0.00,,,1.11,Weather View 32 v70,2013-10-09 00:37:00,
2013-10-08 16:42:00,42.1,41.8,29.00,NNE,22,0.0,0.0,99,0.00,,,1.11,Weather View 32 v70,2013-10-09 00:42:00,
2013-10-08 16:47:00,42.1,41.8,29.00,NNE,22,0.0,0.0,99,0.00,,,1.11,Weather View 32 v70,2013-10-09 00:47:00,
2013-10-08 16:52:00,42.1,41.8,29.00,NNE,22,0.0,0.0,99,0.00,,,1.11,Weather View 32 v70,2013-10-09 00:52:00,
2013-10-08 16:57:00,42.3,42.0,28.99,NNE,22,0.0,0.0,99,0.00,,,1.11,Weather View 32 v70,2013-10-09 00:57:00,
2013-10-08 17:02:00,42.3,42.0,28.99,NNE,22,0.0,0.0,99,0.00,,,1.11,Weather View 32 v70,2013-10-09 01:02:00,
2013-10-08 17:07:00,42.3,42.0,28.99,NNE,22,0.0,0.0,99,0.00,,,1.11,Weather View 32 v70,2013-10-09 01:07:00,
2013-10-08 17:12:00,42.1,41.8,28.99,NNE,22,0.0,0.0,99,0.00,,,1.11,Weather View 32 v70,2013-10-09 01:12:00,
2013-10-08 17:17:00,41.9,41.6,29.00,NNE,22,0.0,0.0,99,0.00,,,1.11,Weather View 32 v70,2013-10-09 01:17:00,
2013-10-08 17:22:00,42.1,41.8,29.00,NNE,22,0.0,0.0,99,0.03,,,1.14,Weather View 32 v70,2013-10-09 01:22:00,
2013-10-08 17:27:00,42.1,41.8,29.00,NNE,22,0.0,0.0,99,0.03,,,1.14,Weather View 32 v70,2013-10-09 01:27:00,
2013-10-08 17:32:00,42.1,41.8,29.00,NNE,22,0.0,0.0,99,0.03,,,1.14,Weather View 32 v70,2013-10-09 01:32:00,
2013-10-08 17:37:00,42.1,41.8,29.00,NNE,22,0.0,0.0,99,0.03,,,1.14,Weather View 32 v70,2013-10-09 01:37:00,
2013-10-08 17:42:00,42.1,41.8,29.00,NNE,22,0.0,0.0,99,0.03,,,1.14,Weather View 32 v70,2013-10-09 01:42:00,
2013-10-08 17:47:00,41.9,41.6,29.00,NNE,22,0.0,0.0,99,0.06,,,1.17,Weather View 32 v70,2013-10-09 01:47:00,
2013-10-08 17:52:00,41.7,41.5,29.00,NNE,22,0.0,0.0,99,0.06,,,1.17,Weather View 32 v70,2013-10-09 01:52:00,
2013-10-08 17:57:00,41.7,41.5,29.00,NNE,22,0.0,0.0,99,0.06,,,1.17,Weather View 32 v70,2013-10-09 01:57:00,
2013-10-08 18:02:00,41.7,41.5,29.00,NNE,22,0.0,0.0,99,0.09,,,1.20,Weather View 32 v70,2013-10-09 02:02:00,
2013-10-08 18:07:00,41.7,41.5,29.00,NNE,22,0.0,0.0,99,0.09,,,1.20,Weather View 32 v70,2013-10-09 02:07:00,
2013-10-08 18:12:00,41.7,41.5,29.00,NNE,22,0.0,0.0,99,0.09,,,1.20,Weather View 32 v70,2013-10-09 02:12:00,
2013-10-08 18:17:00,41.7,41.5,29.00,NNE,22,0.0,0.0,99,0.09,,,1.20,Weather View 32 v70,2013-10-09 02:17:00,
2013-10-08 18:22:00,41.7,41.5,29.00,NNE,22,0.0,0.0,99,0.06,,,1.20,Weather View 32 v70,2013-10-09 02:22:00,
2013-10-08 18:27:00,41.7,41.5,29.00,NNE,22,0.0,0.0,99,0.06,,,1.20,Weather View 32 v70,2013-10-09 02:27:00,
2013-10-08 18:32:00,41.5,41.3,29.00,NNE,22,0.0,0.0,99,0.06,,,1.20,Weather View 32 v70,2013-10-09 02:32:00,
2013-10-08 18:37:00,41.5,41.3,29.01,NNE,22,0.0,0.0,99,0.06,,,1.20,Weather View 32 v70,2013-10-09 02:37:00,
2013-10-08 18:42:00,41.5,41.3,29.01,NNE,22,0.0,0.0,99,0.06,,,1.20,Weather View 32 v70,2013-10-09 02:42:00,
2013-10-08 18:47:00,41.5,41.3,29.01,NNE,22,0.0,0.0,99,0.06,,,1.23,Weather View 32 v70,2013-10-09 02:47:00,
2013-10-08 18:52:00,41.5,41.3,29.01,NNE,22,0.0,0.0,99,0.06,,,1.23,Weather View 32 v70,2013-10-09 02:52:00,
2013-10-08 18:57:00,41.5,41.3,29.01,NNE,22,0.0,0.0,99,0.06,,,1.23,Weather View 32 v70,2013-10-09 02:57:00,
2013-10-08 19:02:00,41.5,41.3,29.01,NNE,22,0.0,0.0,99,0.03,,,1.26,Weather View 32 v70,2013-10-09 03:02:00,
2013-10-08 19:07:00,41.4,41.1,29.01,NNE,22,0.0,0.0,99,0.06,,,1.26,Weather View 32 v70,2013-10-09 03:07:00,
2013-10-08 19:12:00,41.4,41.1,29.01,NNE,22,0.0,0.0,99,0.06,,,1.26,Weather View 32 v70,2013-10-09 03:12:00,
2013-10-08 19:17:00,41.4,41.1,29.01,NNE,22,0.0,0.0,99,0.06,,,1.26,Weather View 32 v70,2013-10-09 03:17:00,
2013-10-08 19:22:00,41.4,41.1,29.01,NNE,22,0.0,0.0,99,0.06,,,1.26,Weather View 32 v70,2013-10-09 03:22:00,
2013-10-08 19:27:00,41.4,41.1,29.01,NNE,22,0.0,0.0,99,0.09,,,1.29,Weather View 32 v70,2013-10-09 03:27:00,
2013-10-08 19:32:00,41.4,41.1,29.01,NNE,22,0.0,0.0,99,0.09,,,1.29,Weather View 32 v70,2013-10-09 03:32:00,
2013-10-08 19:37:00,41.4,41.1,29.01,NNE,22,0.0,0.0,99,0.09,,,1.29,Weather View 32 v70,2013-10-09 03:37:00,
2013-10-08 19:42:00,41.4,41.1,29.01,NNE,22,0.0,0.0,99,0.09,,,1.29,Weather View 32 v70,2013-10-09 03:42:00,
2013-10-08 19:47:00,41.4,41.1,29.01,NNE,22,0.0,0.0,99,0.06,,,1.29,Weather View 32 v70,2013-10-09 03:47:00,
2013-10-08 19:52:00,41.4,41.1,29.01,NNE,22,0.0,0.0,99,0.06,,,1.29,Weather View 32 v70,2013-10-09 03:52:00,
2013-10-08 19:57:00,41.4,41.1,29.01,NNE,22,0.0,0.0,99,0.06,,,1.29,Weather View 32 v70,2013-10-09 03:57:00,
2013-10-08 20:01:00,41.4,41.1,29.01,NNE,22,0.0,0.0,99,0.06,,,1.29,Weather View 32 v70,2013-10-09 04:01:00,
2013-10-08 20:06:00,41.2,40.9,29.01,NNE,22,0.0,0.0,99,0.03,,,1.29,Weather View 32 v70,2013-10-09 04:06:00,
2013-10-08 20:11:00,41.0,40.7,29.01,NNE,22,0.0,0.0,99,0.03,,,1.29,Weather View 32 v70,2013-10-09 04:11:00,
2013-10-08 20:16:00,40.8,40.6,29.00,NNE,22,0.0,0.0,99,0.03,,,1.29,Weather View 32 v70,2013-10-09 04:16:00,
2013-10-08 20:21:00,40.8,40.6,29.00,NNE,22,0.0,0.0,99,0.03,,,1.29,Weather View 32 v70,2013-10-09 04:21:00,
2013-10-08 20:26:00,40.8,40.6,29.00,NNE,22,0.0,0.0,99,0.03,,,1.29,Weather View 32 v70,2013-10-09 04:26:00,
2013-10-08 20:31:00,40.8,40.6,29.00,NNE,22,0.0,0.0,99,0.00,,,1.29,Weather View 32 v70,2013-10-09 04:31:00,
2013-10-08 20:36:00,40.8,40.6,29.01,NNE,22,0.0,0.0,99,0.00,,,1.29,Weather View 32 v70,2013-10-09 04:36:00,
2013-10-08 20:41:00,41.0,40.7,29.01,NNE,22,0.0,0.0,99,0.00,,,1.29,Weather View 32 v70,2013-10-09 04:41:00,
2013-10-08 20:46:00,41.0,40.7,29.01,NNE,22,0.0,0.0,99,0.00,,,1.29,Weather View 32 v70,2013-10-09 04:46:00,
2013-10-08 20:51:00,41.0,40.7,29.01,NNE,22,0.0,0.0,99,0.00,,,1.29,Weather View 32 v70,2013-10-09 04:51:00,
2013-10-08 20:56:00,41.2,40.9,29.00,NNE,22,0.0,0.0,99,0.00,,,1.29,Weather View 32 v70,2013-10-09 04:56:00,
2013-10-08 21:01:00,41.2,40.9,29.00,NNE,22,0.0,0.0,99,0.00,,,1.29,Weather View 32 v70,2013-10-09 05:01:00,
2013-10-08 21:06:00,41.0,40.7,29.00,NNE,22,0.0,0.0,99,0.00,,,1.29,Weather View 32 v70,2013-10-09 05:06:00,
2013-10-08 21:11:00,41.0,40.7,29.00,NNE,22,0.0,0.0,99,0.03,,,1.32,Weather View 32 v70,2013-10-09 05:11:00,
2013-10-08 21:16:00,40.8,40.6,29.00,NNE,22,0.0,0.0,99,0.03,,,1.32,Weather View 32 v70,2013-10-09 05:16:00,
2013-10-08 21:21:00,40.6,40.4,29.00,NNE,22,0.0,0.0,99,0.03,,,1.32,Weather View 32 v70,2013-10-09 05:21:00,
2013-10-08 21:26:00,40.5,40.2,29.00,NNE,22,0.0,0.0,99,0.03,,,1.32,Weather View 32 v70,2013-10-09 05:26:00,
2013-10-08 21:31:00,40.5,40.2,29.00,NNE,22,0.0,0.0,99,0.03,,,1.32,Weather View 32 v70,2013-10-09 05:31:00,
2013-10-08 21:36:00,40.3,40.0,29.00,NNE,22,0.0,0.0,99,0.03,,,1.32,Weather View 32 v70,2013-10-09 05:36:00,
2013-10-08 21:41:00,40.3,40.0,29.00,NNE,22,0.0,0.0,99,0.03,,,1.32,Weather View 32 v70,2013-10-09 05:41:00,
2013-10-08 21:46:00,40.3,40.0,29.00,NNE,22,0.0,0.0,99,0.03,,,1.32,Weather View 32 v70,2013-10-09 05:46:00,
2013-10-08 21:51:00,40.1,39.8,29.00,NNE,22,0.0,0.0,99,0.03,,,1.32,Weather View 32 v70,2013-10-09 05:51:00,
2013-10-08 21:56:00,39.7,39.5,29.00,NNE,22,0.0,0.0,99,0.03,,,1.32,Weather View 32 v70,2013-10-09 05:56:00,
2013-10-08 22:01:00,39.6,39.3,29.00,NNE,22,0.0,0.0,99,0.03,,,1.32,Weather View 32 v70,2013-10-09 06:01:00,
2013-10-08 22:06:00,39.2,38.9,29.00,NNE,22,0.0,0.0,99,0.03,,,1.32,Weather View 32 v70,2013-10-09 06:06:00,
2013-10-08 22:11:00,39.2,38.9,29.00,NNE,22,0.0,0.0,99,0.00,,,1.32,Weather View 32 v70,2013-10-09 06:11:00,
2013-10-08 22:16:00,39.0,38.8,29.00,NNE,22,0.0,0.0,99,0.00,,,1.32,Weather View 32 v70,2013-10-09 06:16:00,
2013-10-08 22:21:00,38.8,38.6,29.00,NNE,22,0.0,0.0,99,0.00,,,1.32,Weather View 32 v70,2013-10-09 06:21:00,
2013-10-08 22:26:00,38.7,38.4,29.00,NNE,22,0.0,0.0,99,0.00,,,1.32,Weather View 32 v70,2013-10-09 06:26:00,
2013-10-08 22:31:00,38.5,38.2,29.00,NNE,22,0.0,0.0,99,0.00,,,1.32,Weather View 32 v70,2013-10-09 06:31:00,
2013-10-08 22:36:00,38.5,38.2,29.00,NNE,22,0.0,0.0,99,0.00,,,1.32,Weather View 32 v70,2013-10-09 06:36:00,
2013-10-08 22:41:00,38.5,38.2,29.00,NNE,22,0.0,0.0,99,0.00,,,1.32,Weather View 32 v70,2013-10-09 06:41:00,
2013-10-08 22:46:00,38.5,38.2,29.00,NNE,22,0.0,0.0,99,0.00,,,1.32,Weather View 32 v70,2013-10-09 06:46:00,
2013-10-08 22:51:00,38.5,38.2,29.00,NNE,22,0.0,0.0,99,0.00,,,1.32,Weather View 32 v70,2013-10-09 06:51:00,
2013-10-08 22:56:00,38.5,38.2,29.00,NNE,22,0.0,0.0,99,0.00,,,1.32,Weather View 32 v70,2013-10-09 06:56:00,
2013-10-08 23:01:00,38.5,38.2,29.00,NNE,22,0.0,0.0,99,0.00,,,1.32,Weather View 32 v70,2013-10-09 07:01:00,
2013-10-08 23:06:00,38.5,38.2,29.00,NNE,22,0.0,0.0,99,0.00,,,1.32,Weather View 32 v70,2013-10-09 07:06:00,
2013-10-08 23:11:00,38.5,38.2,29.00,NNE,22,0.0,0.0,99,0.00,,,1.32,Weather View 32 v70,2013-10-09 07:11:00,
2013-10-08 23:16:00,38.5,38.2,29.00,NNE,22,0.0,0.0,99,0.00,,,1.32,Weather View 32 v70,2013-10-09 07:16:00,
2013-10-08 23:21:00,38.5,38.2,29.00,NNE,22,0.0,0.0,99,0.00,,,1.32,Weather View 32 v70,2013-10-09 07:21:00,
2013-10-08 23:26:00,38.5,38.2,29.00,NNE,22,0.0,0.0,99,0.00,,,1.32,Weather View 32 v70,2013-10-09 07:26:00,
2013-10-08 23:31:00,38.5,38.2,29.00,NNE,22,0.0,0.0,99,0.00,,,1.32,Weather View 32 v70,2013-10-09 07:31:00,
2013-10-08 23:36:00,38.5,38.2,29.01,NNE,22,0.0,0.0,99,0.00,,,1.32,Weather View 32 v70,2013-10-09 07:36:00,
2013-10-08 23:41:00,38.7,38.4,29.01,NNE,22,0.0,0.0,99,0.00,,,1.32,Weather View 32 v70,2013-10-09 07:41:00,
2013-10-08 23:46:00,38.8,38.6,29.01,NNE,22,0.0,0.0,99,0.00,,,1.32,Weather View 32 v70,2013-10-09 07:46:00,
2013-10-08 23:51:00,38.8,38.6,29.01,NNE,22,0.0,0.0,99,0.00,,,1.32,Weather View 32 v70,2013-10-09 07:51:00,
2013-10-08 23:56:00,38.8,38.6,29.01,NNE,22,0.0,0.0,99,0.00,,,1.32,Weather View 32 v70,2013-10-09 07:56:00,